Time;durP1;ratioP1;P1;durP2;ratioP2;P2;SDS_P1;SDS_P2;PMS_P1;PMS_P2;Temp;Humidity;BMP_temperature;BMP_pressure;BME280_temperature;BME280_humidity;BME280_pressure;Samples;Min_cycle;Max_cycle;Signal;HPM_P1;HPM_P2
2021/01/30 00:01:09;;;;;;;1.40;0.30;;;7.80;99.90;;;;;;1896675;76;21043;-81
2021/01/30 00:03:36;;;;;;;0.40;0.40;;;7.80;99.90;;;;;;1896583;76;21073;-82
2021/01/30 00:06:02;;;;;;;0.45;0.45;;;7.90;99.90;;;;;;1896617;76;21087;-81
2021/01/30 00:08:29;;;;;;;1.07;0.62;;;8.00;99.90;;;;;;1896790;76;21058;-83
2021/01/30 00:10:55;;;;;;;0.90;0.40;;;8.10;99.90;;;;;;1896617;76;21171;-83
2021/01/30 00:13:21;;;;;;;0.40;0.20;;;8.20;99.90;;;;;;1896504;76;21039;-81
2021/01/30 00:15:47;;;;;;;2.08;0.72;;;8.20;99.90;;;;;;1896543;76;21035;-82
2021/01/30 00:18:14;;;;;;;0.40;0.37;;;8.10;99.90;;;;;;1899388;76;21105;-81
2021/01/30 00:20:40;;;;;;;0.30;0.30;;;8.10;99.90;;;;;;1898744;76;21124;-81
2021/01/30 00:23:06;;;;;;;0.95;0.30;;;8.20;99.90;;;;;;1896971;75;21078;-80
2021/01/30 00:25:33;;;;;;;0.28;0.25;;;8.20;99.90;;;;;;1896035;76;21073;-81
2021/01/30 00:27:59;;;;;;;0.72;0.40;;;8.10;99.90;;;;;;1896037;76;21095;-80
2021/01/30 00:30:26;;;;;;;3.67;0.30;;;8.10;99.90;;;;;;1895917;76;21047;-80
2021/01/30 00:32:52;;;;;;;1.80;0.45;;;8.10;99.90;;;;;;1895802;76;21140;-81
2021/01/30 00:35:18;;;;;;;0.37;0.37;;;8.20;99.90;;;;;;1895833;76;21066;-80
2021/01/30 00:37:44;;;;;;;2.20;0.45;;;8.10;99.90;;;;;;1895913;76;21124;-82
2021/01/30 00:40:10;;;;;;;1.65;0.75;;;8.00;99.90;;;;;;1895665;76;21070;-81
2021/01/30 00:42:36;;;;;;;0.40;0.20;;;8.00;99.90;;;;;;1895799;76;21498;-80
2021/01/30 00:45:02;;;;;;;0.53;0.20;;;8.00;99.90;;;;;;1895781;75;21388;-80
2021/01/30 00:47:28;;;;;;;1.50;0.33;;;8.00;99.90;;;;;;1895828;76;21600;-81
2021/01/30 00:49:55;;;;;;;0.42;0.40;;;7.90;99.90;;;;;;1895652;76;21066;-81
2021/01/30 00:52:21;;;;;;;0.40;0.30;;;7.90;99.90;;;;;;1895669;76;21096;-80
2021/01/30 00:54:48;;;;;;;1.60;0.30;;;7.80;99.90;;;;;;1895844;76;21078;-79
2021/01/30 00:57:14;;;;;;;0.55;0.50;;;7.70;99.90;;;;;;1895674;76;21143;-80
2021/01/30 00:59:40;;;;;;;1.70;0.30;;;7.70;99.90;;;;;;1895931;75;21074;-81
2021/01/30 01:02:06;;;;;;;2.17;0.55;;;7.70;99.90;;;;;;1902180;74;21475;-82
2021/01/30 01:04:32;;;;;;;0.50;0.30;;;7.60;99.90;;;;;;1908421;74;21425;-80
2021/01/30 01:06:58;;;;;;;0.80;0.55;;;7.60;99.90;;;;;;1909319;74;21478;-81
2021/01/30 01:09:24;;;;;;;1.15;0.40;;;7.70;99.90;;;;;;1895884;76;21062;-81
2021/01/30 01:11:50;;;;;;;1.07;0.70;;;7.70;99.90;;;;;;1908437;74;21098;-81
2021/01/30 01:14:17;;;;;;;5.83;0.50;;;7.70;99.90;;;;;;1903318;74;21127;-81
2021/01/30 01:16:43;;;;;;;1.30;0.50;;;7.70;99.90;;;;;;1913818;74;21055;-81
2021/01/30 01:19:09;;;;;;;2.35;0.60;;;7.60;99.90;;;;;;1896131;76;21144;-81
2021/01/30 01:21:35;;;;;;;0.90;0.40;;;7.60;99.90;;;;;;1896232;76;21066;-82
2021/01/30 01:24:01;;;;;;;1.62;0.40;;;7.50;99.90;;;;;;1896260;76;21107;-81
2021/01/30 01:26:27;;;;;;;2.52;0.40;;;7.50;99.90;;;;;;1896045;76;21066;-81
2021/01/30 01:28:53;;;;;;;0.90;0.45;;;7.40;99.90;;;;;;1896056;76;21066;-81
2021/01/30 01:31:19;;;;;;;0.57;0.25;;;7.40;99.90;;;;;;1895895;76;21041;-81
2021/01/30 01:33:46;;;;;;;0.37;0.30;;;7.40;99.90;;;;;;1895945;76;21168;-82
2021/01/30 01:36:12;;;;;;;0.95;0.30;;;7.40;99.90;;;;;;1895890;75;21074;-81
2021/01/30 01:38:38;;;;;;;1.22;0.37;;;7.40;99.90;;;;;;1896017;76;21074;-82
2021/01/30 01:41:04;;;;;;;0.10;0.10;;;7.50;99.90;;;;;;1895942;76;21470;-81
2021/01/30 01:43:30;;;;;;;1.00;0.50;;;7.50;99.90;;;;;;1895833;76;21499;-81
2021/01/30 01:45:56;;;;;;;0.30;0.25;;;7.50;99.90;;;;;;1895965;76;21518;-81
2021/01/30 01:48:22;;;;;;;0.45;0.30;;;7.40;99.90;;;;;;1895809;76;21475;-79
2021/01/30 01:50:49;;;;;;;0.45;0.30;;;7.40;99.90;;;;;;1895845;76;21062;-83
2021/01/30 01:53:15;;;;;;;0.28;0.28;;;7.40;99.90;;;;;;1895924;76;21066;-83
2021/01/30 01:55:41;;;;;;;0.80;0.45;;;7.40;99.90;;;;;;1895897;75;21042;-79
2021/01/30 01:58:07;;;;;;;0.85;0.53;;;7.40;99.90;;;;;;1895811;76;21078;-81
2021/01/30 02:00:33;;;;;;;0.37;0.30;;;7.40;99.90;;;;;;1895834;76;21042;-81
2021/01/30 02:02:59;;;;;;;1.95;0.50;;;7.50;99.90;;;;;;1895792;76;21078;-81
2021/01/30 02:05:26;;;;;;;0.65;0.25;;;7.50;99.90;;;;;;1895849;76;21603;-81
2021/01/30 02:07:52;;;;;;;0.82;0.28;;;7.50;99.90;;;;;;1895871;76;21030;-81
2021/01/30 02:10:18;;;;;;;0.28;0.25;;;7.50;99.90;;;;;;1895881;75;21074;-81
2021/01/30 02:12:44;;;;;;;0.78;0.37;;;7.50;99.90;;;;;;1895865;75;21062;-81
2021/01/30 02:15:12;;;;;;;2.12;0.53;;;7.50;99.90;;;;;;1895833;76;21144;-83
2021/01/30 02:17:39;;;;;;;0.42;0.20;;;7.50;99.90;;;;;;1895817;75;21087;-81
2021/01/30 02:20:05;;;;;;;0.30;0.20;;;7.40;99.90;;;;;;1896015;76;21085;-83
2021/01/30 02:22:31;;;;;;;0.33;0.30;;;7.40;99.90;;;;;;1895864;76;21135;-81
2021/01/30 02:24:57;;;;;;;0.65;0.20;;;7.40;99.90;;;;;;1895985;76;21103;-82
2021/01/30 02:27:23;;;;;;;0.85;0.47;;;7.40;99.90;;;;;;1895861;76;21498;-82
2021/01/30 02:29:49;;;;;;;0.25;0.17;;;7.40;99.90;;;;;;1895858;76;21431;-81
2021/01/30 02:32:15;;;;;;;0.20;0.20;;;7.30;99.90;;;;;;1895863;76;21620;-81
2021/01/30 02:34:43;;;;;;;1.30;0.40;;;7.40;99.90;;;;;;1895911;76;21136;-80
2021/01/30 02:37:09;;;;;;;0.20;0.20;;;7.40;99.90;;;;;;1895855;76;21577;-80
2021/01/30 02:39:35;;;;;;;0.40;0.20;;;7.40;99.90;;;;;;1895951;76;21759;-82
2021/01/30 02:42:01;;;;;;;0.20;0.20;;;7.40;99.90;;;;;;1895722;75;21447;-81
2021/01/30 02:44:27;;;;;;;0.10;0.10;;;7.30;99.90;;;;;;1895872;76;21139;-82
2021/01/30 02:46:53;;;;;;;0.30;0.28;;;7.30;99.90;;;;;;1895743;76;21035;-80
2021/01/30 02:49:20;;;;;;;1.15;0.30;;;7.30;99.90;;;;;;1896154;76;21128;-82
2021/01/30 02:51:46;;;;;;;0.28;0.28;;;7.20;99.90;;;;;;1895766;76;21277;-82
2021/01/30 02:54:12;;;;;;;0.30;0.25;;;7.20;99.90;;;;;;1895856;76;21140;-82
2021/01/30 02:56:38;;;;;;;0.62;0.17;;;7.10;99.90;;;;;;1896004;75;21156;-82
2021/01/30 02:59:04;;;;;;;0.20;0.20;;;7.00;99.90;;;;;;1895927;76;21143;-83
2021/01/30 03:01:30;;;;;;;0.65;0.20;;;7.00;99.90;;;;;;1895849;76;21561;-82
2021/01/30 03:03:56;;;;;;;0.20;0.20;;;6.80;99.90;;;;;;1895837;76;21400;-82
2021/01/30 03:06:22;;;;;;;0.55;0.20;;;6.70;99.90;;;;;;1895825;76;21473;-82
2021/01/30 03:08:49;;;;;;;0.75;0.20;;;6.80;99.90;;;;;;1895928;76;21490;-83
2021/01/30 03:11:15;;;;;;;0.10;0.10;;;6.90;99.90;;;;;;1895929;75;21062;-83
2021/01/30 03:13:41;;;;;;;0.10;0.10;;;6.70;99.90;;;;;;1922121;74;21110;-81
2021/01/30 03:16:07;;;;;;;0.10;0.10;;;6.70;99.90;;;;;;1902156;74;21069;-81
2021/01/30 03:18:33;;;;;;;0.10;0.10;;;6.60;99.90;;;;;;1912510;74;21051;-83
2021/01/30 03:21:01;;;;;;;0.20;0.20;;;6.60;99.90;;;;;;1902338;74;21167;-81
2021/01/30 03:23:27;;;;;;;0.20;0.20;;;6.50;99.90;;;;;;1895995;75;21074;-82
2021/01/30 03:25:53;;;;;;;0.25;0.20;;;6.50;99.90;;;;;;1899583;75;21058;-83
2021/01/30 03:28:19;;;;;;;0.47;0.33;;;6.70;99.90;;;;;;1902968;74;21073;-82
2021/01/30 03:30:45;;;;;;;0.80;0.42;;;6.70;99.90;;;;;;1896651;75;21062;-82
2021/01/30 03:33:11;;;;;;;0.17;0.10;;;6.70;99.90;;;;;;1912077;74;21080;-83
2021/01/30 03:35:38;;;;;;;0.28;0.20;;;6.70;99.90;;;;;;1896434;76;21128;-83
2021/01/30 03:38:04;;;;;;;0.15;0.15;;;6.70;99.90;;;;;;1909607;74;21132;-82
2021/01/30 03:40:30;;;;;;;0.15;0.15;;;6.70;99.90;;;;;;1896577;76;21062;-82
2021/01/30 03:42:56;;;;;;;0.20;0.20;;;6.70;99.90;;;;;;1896620;76;21110;-81
2021/01/30 03:45:22;;;;;;;0.50;0.28;;;6.70;99.90;;;;;;1896430;76;21064;-83
2021/01/30 03:47:48;;;;;;;0.20;0.20;;;6.70;99.90;;;;;;1896549;76;21479;-83
2021/01/30 03:50:14;;;;;;;1.65;0.30;;;6.60;99.90;;;;;;1896438;76;21035;-81
2021/01/30 03:52:40;;;;;;;0.20;0.20;;;6.80;99.90;;;;;;1896416;76;21066;-82
2021/01/30 03:55:07;;;;;;;3.08;0.25;;;6.80;99.90;;;;;;1896455;76;21098;-82
2021/01/30 03:57:33;;;;;;;1.45;0.10;;;6.90;99.90;;;;;;1896511;76;21066;-82
2021/01/30 03:59:59;;;;;;;0.30;0.30;;;6.90;99.90;;;;;;1896299;76;21124;-82
2021/01/30 04:02:26;;;;;;;0.30;0.20;;;6.90;99.90;;;;;;1896533;76;21125;-82
2021/01/30 04:04:52;;;;;;;0.30;0.30;;;6.90;99.90;;;;;;1896583;76;21070;-82
2021/01/30 04:07:18;;;;;;;0.78;0.30;;;6.90;99.90;;;;;;1896353;76;21054;-82
2021/01/30 04:09:44;;;;;;;0.42;0.40;;;6.90;99.90;;;;;;1896488;76;21144;-82
2021/01/30 04:12:10;;;;;;;0.40;0.30;;;6.90;99.90;;;;;;1896399;76;21062;-82
2021/01/30 04:14:38;;;;;;;0.53;0.40;;;6.90;99.90;;;;;;1896491;76;21427;-80
2021/01/30 04:17:04;;;;;;;1.35;0.30;;;7.00;99.90;;;;;;1896352;76;21063;-81
2021/01/30 04:19:30;;;;;;;0.20;0.20;;;7.00;99.90;;;;;;1896373;76;21124;-81
2021/01/30 04:21:57;;;;;;;0.62;0.20;;;7.00;99.90;;;;;;1896396;76;21159;-81
2021/01/30 04:24:23;;;;;;;0.17;0.10;;;7.00;99.90;;;;;;1896358;76;21073;-81
2021/01/30 04:26:49;;;;;;;1.35;0.37;;;7.00;99.90;;;;;;1896412;76;21136;-82
2021/01/30 04:29:15;;;;;;;0.10;0.10;;;7.00;99.90;;;;;;1896504;76;21411;-82
2021/01/30 04:31:41;;;;;;;0.17;0.17;;;6.90;99.90;;;;;;1896395;76;21529;-82
2021/01/30 04:34:07;;;;;;;0.35;0.30;;;6.90;99.90;;;;;;1896493;76;21520;-82
2021/01/30 04:36:33;;;;;;;1.15;0.10;;;6.80;99.90;;;;;;1896275;76;21120;-80
2021/01/30 04:38:59;;;;;;;0.13;0.13;;;6.90;99.90;;;;;;1896486;76;21066;-82
2021/01/30 04:41:25;;;;;;;0.28;0.25;;;6.90;99.90;;;;;;1896269;76;21054;-82
2021/01/30 04:43:52;;;;;;;0.30;0.30;;;6.80;99.90;;;;;;1896280;76;21014;-82
2021/01/30 04:46:18;;;;;;;0.62;0.30;;;6.80;99.90;;;;;;1896432;76;21058;-82
2021/01/30 04:48:44;;;;;;;0.10;0.10;;;6.80;99.90;;;;;;1896369;76;21062;-81
2021/01/30 04:51:10;;;;;;;0.75;0.30;;;6.80;99.90;;;;;;1896488;76;21050;-81
2021/01/30 04:53:36;;;;;;;0.40;0.17;;;6.90;99.90;;;;;;1896477;75;21203;-80
2021/01/30 04:56:02;;;;;;;0.28;0.17;;;6.90;99.90;;;;;;1896454;76;21057;-81
2021/01/30 04:58:28;;;;;;;0.30;0.30;;;6.90;99.90;;;;;;1896278;76;21094;-81
2021/01/30 05:00:54;;;;;;;0.20;0.20;;;7.00;99.90;;;;;;1896495;76;21042;-81
2021/01/30 05:03:21;;;;;;;0.60;0.20;;;7.00;99.90;;;;;;1896261;75;21074;-80
2021/01/30 05:05:47;;;;;;;0.37;0.37;;;6.90;99.90;;;;;;1896461;76;21109;-82
2021/01/30 05:08:15;;;;;;;0.40;0.20;;;6.90;99.90;;;;;;1901645;74;21486;-82
2021/01/30 05:10:41;;;;;;;0.72;0.25;;;6.90;99.90;;;;;;1896544;76;21078;-83
2021/01/30 05:13:07;;;;;;;1.47;0.30;;;6.90;99.90;;;;;;1896744;76;21050;-81
2021/01/30 05:15:33;;;;;;;1.90;0.70;;;7.00;99.90;;;;;;1897491;76;21043;-82
2021/01/30 05:17:59;;;;;;;2.45;0.30;;;7.00;99.90;;;;;;1898816;75;21074;-81
2021/01/30 05:20:25;;;;;;;0.20;0.20;;;6.90;99.90;;;;;;1899451;75;21081;-81
2021/01/30 05:22:51;;;;;;;0.42;0.30;;;6.90;99.90;;;;;;1896462;76;21486;-82
2021/01/30 05:25:17;;;;;;;1.65;0.30;;;7.00;99.90;;;;;;1907642;74;21062;-81
2021/01/30 05:27:44;;;;;;;0.30;0.30;;;7.00;99.90;;;;;;1898113;74;21055;-81
2021/01/30 05:30:10;;;;;;;0.80;0.40;;;7.00;99.90;;;;;;1907069;74;21047;-82
2021/01/30 05:32:36;;;;;;;0.75;0.35;;;7.00;99.90;;;;;;1909110;74;21100;-81
2021/01/30 05:35:02;;;;;;;0.40;0.40;;;7.00;99.90;;;;;;1901596;74;21435;-81
2021/01/30 05:37:29;;;;;;;1.77;0.35;;;7.00;99.90;;;;;;1922437;74;21530;-82
2021/01/30 05:39:55;;;;;;;1.82;0.23;;;7.00;99.90;;;;;;1902010;73;21062;-81
2021/01/30 05:42:21;;;;;;;0.65;0.50;;;7.00;99.90;;;;;;1896532;76;21059;-81
2021/01/30 05:44:47;;;;;;;2.70;0.57;;;7.00;99.90;;;;;;1896594;76;21066;-80
2021/01/30 05:47:13;;;;;;;1.22;0.40;;;7.00;99.90;;;;;;1896679;76;21070;-81
2021/01/30 05:49:39;;;;;;;0.75;0.50;;;7.00;99.90;;;;;;1896365;76;21035;-81
2021/01/30 05:52:06;;;;;;;6.55;0.95;;;6.90;99.90;;;;;;1896678;76;21083;-81
2021/01/30 05:54:32;;;;;;;0.45;0.35;;;7.00;99.90;;;;;;1896377;76;21070;-81
2021/01/30 05:56:58;;;;;;;0.55;0.50;;;7.00;99.90;;;;;;1896581;76;21463;-81
2021/01/30 05:59:24;;;;;;;3.10;1.02;;;6.90;99.90;;;;;;1896686;75;21447;-81
2021/01/30 06:01:50;;;;;;;1.30;0.65;;;6.90;99.90;;;;;;1896707;76;21172;-81
2021/01/30 06:04:16;;;;;;;0.72;0.30;;;7.00;99.90;;;;;;1896653;76;21156;-81
2021/01/30 06:06:42;;;;;;;2.52;0.50;;;6.90;99.90;;;;;;1896368;76;21007;-82
2021/01/30 06:09:09;;;;;;;3.20;0.68;;;6.90;99.90;;;;;;1896507;76;21066;-81
2021/01/30 06:11:35;;;;;;;0.57;0.30;;;7.00;99.90;;;;;;1896483;76;21054;-81
2021/01/30 06:14:01;;;;;;;3.35;0.60;;;7.00;99.90;;;;;;1896561;76;21062;-81
2021/01/30 06:16:27;;;;;;;1.27;0.50;;;7.00;99.90;;;;;;1896345;76;21117;-81
2021/01/30 06:18:53;;;;;;;4.87;1.00;;;7.00;99.90;;;;;;1896560;76;21140;-81
2021/01/30 06:21:19;;;;;;;0.40;0.30;;;7.00;99.90;;;;;;1896416;76;21411;-82
2021/01/30 06:23:45;;;;;;;2.90;0.37;;;7.00;99.90;;;;;;1896388;76;21490;-82
2021/01/30 06:26:12;;;;;;;1.02;0.40;;;6.90;99.90;;;;;;1896357;76;21458;-81
2021/01/30 06:28:38;;;;;;;8.43;0.60;;;6.90;99.90;;;;;;1896549;76;21062;-82
2021/01/30 06:31:04;;;;;;;3.10;0.50;;;6.90;99.90;;;;;;1896666;76;21132;-80
2021/01/30 06:33:30;;;;;;;7.30;0.82;;;6.80;99.90;;;;;;1896650;76;21087;-81
2021/01/30 06:35:56;;;;;;;3.12;0.45;;;6.80;99.90;;;;;;1896673;76;21087;-81
2021/01/30 06:38:22;;;;;;;2.45;0.93;;;6.80;99.90;;;;;;1896650;76;21096;-82
2021/01/30 06:40:48;;;;;;;1.85;0.68;;;6.80;99.90;;;;;;1896355;76;21059;-80
2021/01/30 06:43:16;;;;;;;0.62;0.55;;;6.80;99.90;;;;;;1896608;76;21136;-81
2021/01/30 06:45:42;;;;;;;3.25;0.88;;;6.80;99.90;;;;;;1898733;75;21269;-81
2021/01/30 06:48:09;;;;;;;5.28;1.05;;;6.80;99.90;;;;;;1896371;76;21042;-81
2021/01/30 06:50:35;;;;;;;3.83;0.42;;;6.80;99.90;;;;;;1896570;76;21045;-81
2021/01/30 06:53:01;;;;;;;2.05;0.60;;;6.90;99.90;;;;;;1896369;76;21147;-81
2021/01/30 06:55:27;;;;;;;3.55;0.85;;;6.80;99.90;;;;;;1896473;76;21109;-82
2021/01/30 06:57:53;;;;;;;3.70;1.40;;;6.70;99.90;;;;;;1896429;76;21128;-82
2021/01/30 07:00:24;;;;;;;1.32;0.57;;;6.60;99.90;;;;;;1896443;76;21067;-81
2021/01/30 07:02:47;;;;;;;3.52;0.93;;;6.60;99.90;;;;;;1895817;75;21114;-81
2021/01/30 07:05:13;;;;;;;2.60;0.62;;;6.60;99.90;;;;;;1897818;76;21077;-83
2021/01/30 07:07:39;;;;;;;2.40;0.60;;;6.60;99.90;;;;;;1897732;76;21038;-81
2021/01/30 07:10:06;;;;;;;4.20;0.88;;;6.50;99.90;;;;;;1896437;76;21058;-80
2021/01/30 07:12:32;;;;;;;6.78;0.90;;;6.50;99.90;;;;;;1896443;76;21120;-80
2021/01/30 07:14:58;;;;;;;1.72;0.65;;;6.50;99.90;;;;;;1896499;76;21106;-80
2021/01/30 07:17:26;;;;;;;3.40;0.62;;;6.60;99.90;;;;;;1896490;76;21110;-79
2021/01/30 07:19:52;;;;;;;2.58;0.80;;;6.50;99.90;;;;;;1896458;76;21066;-80
2021/01/30 07:22:18;;;;;;;1.25;0.60;;;6.60;99.90;;;;;;1896393;76;21113;-82
2021/01/30 07:24:44;;;;;;;4.92;1.02;;;6.70;99.90;;;;;;1896332;76;21118;-81
2021/01/30 07:27:10;;;;;;;6.03;1.10;;;6.60;99.90;;;;;;1896412;76;21066;-81
2021/01/30 07:29:36;;;;;;;7.75;0.90;;;6.70;99.90;;;;;;1896414;76;21156;-81
2021/01/30 07:32:14;;;;;;;5.87;0.82;;;6.70;99.90;;;;;;1896417;76;21568;-81
2021/01/30 07:34:40;;;;;;;2.17;0.57;;;6.80;99.90;;;;;;1909577;73;21146;-81
2021/01/30 07:37:06;;;;;;;4.22;1.15;;;6.80;99.90;;;;;;1896532;75;21039;-81
2021/01/30 07:39:32;;;;;;;2.85;0.80;;;6.80;99.90;;;;;;1896397;76;21128;-80
2021/01/30 07:41:58;;;;;;;3.17;0.93;;;6.90;99.90;;;;;;1896489;76;21121;-81
2021/01/30 07:44:24;;;;;;;2.62;0.90;;;6.90;99.90;;;;;;1896282;76;21078;-81
2021/01/30 07:46:50;;;;;;;2.30;1.20;;;6.90;99.90;;;;;;1899496;74;21070;-82
2021/01/30 07:49:16;;;;;;;3.33;1.02;;;7.00;99.90;;;;;;1912927;74;21443;-81
2021/01/30 07:51:43;;;;;;;5.03;0.72;;;7.00;99.90;;;;;;1908419;74;21481;-81
2021/01/30 07:54:09;;;;;;;5.60;1.20;;;7.20;99.90;;;;;;1896302;76;21483;-77
2021/01/30 07:56:35;;;;;;;7.28;0.90;;;7.20;99.90;;;;;;1902265;74;21136;-78
2021/01/30 07:59:01;;;;;;;10.00;1.15;;;7.20;99.90;;;;;;1896262;76;21068;-74
2021/01/30 08:01:27;;;;;;;2.08;1.07;;;7.40;99.90;;;;;;1896879;75;21066;-76
2021/01/30 08:03:55;;;;;;;1.50;0.82;;;7.40;99.90;;;;;;1897030;76;21081;-75
2021/01/30 08:06:21;;;;;;;7.90;0.80;;;7.40;99.90;;;;;;1896885;76;21435;-78
2021/01/30 08:08:47;;;;;;;5.50;1.10;;;7.40;99.90;;;;;;1911172;74;21575;-76
2021/01/30 08:11:13;;;;;;;5.25;1.20;;;7.50;99.90;;;;;;1921172;74;21498;-78
2021/01/30 08:13:39;;;;;;;5.80;1.65;;;7.60;99.90;;;;;;1909710;74;21455;-78
2021/01/30 08:16:05;;;;;;;7.53;1.35;;;7.60;99.90;;;;;;1896492;76;21128;-78
2021/01/30 08:18:31;;;;;;;12.18;1.20;;;7.70;99.90;;;;;;1897062;76;21058;-78
2021/01/30 08:20:57;;;;;;;9.85;1.72;;;7.90;99.90;;;;;;1897022;75;21062;-78
2021/01/30 08:23:24;;;;;;;6.90;1.05;;;7.90;99.90;;;;;;1896910;76;21092;-79
2021/01/30 08:25:50;;;;;;;9.23;1.22;;;8.00;99.90;;;;;;1896936;76;21063;-79
2021/01/30 08:28:16;;;;;;;5.45;1.20;;;8.00;99.90;;;;;;1897025;76;21038;-82
2021/01/30 08:30:42;;;;;;;3.45;0.98;;;8.20;99.90;;;;;;1896980;76;21062;-77
2021/01/30 08:33:10;;;;;;;2.83;1.02;;;8.00;99.90;;;;;;1896964;76;21175;-78
2021/01/30 08:35:36;;;;;;;5.72;1.50;;;8.00;99.90;;;;;;1896991;76;21132;-81
2021/01/30 08:38:05;;;;;;;4.35;0.80;;;8.00;99.90;;;;;;1896995;76;21030;-79
2021/01/30 08:40:35;;;;;;;8.48;1.55;;;7.80;99.90;;;;;;1896237;75;21047;-79
2021/01/30 08:43:01;;;;;;;8.03;2.10;;;7.70;99.90;;;;;;1896517;75;21540;-78
2021/01/30 08:45:27;;;;;;;3.55;1.02;;;7.80;99.90;;;;;;1897046;76;21137;-79
2021/01/30 08:47:55;;;;;;;3.37;1.22;;;7.90;99.90;;;;;;1896863;76;21474;-79
2021/01/30 08:50:21;;;;;;;8.88;0.85;;;7.90;99.90;;;;;;1897029;76;21132;-77
2021/01/30 08:52:47;;;;;;;3.98;1.60;;;7.90;99.90;;;;;;1896860;76;21062;-79
2021/01/30 08:55:13;;;;;;;5.72;1.42;;;7.90;99.90;;;;;;1897019;76;21125;-82
2021/01/30 08:57:39;;;;;;;4.75;1.50;;;7.90;99.90;;;;;;1896934;76;21039;-78
2021/01/30 09:00:05;;;;;;;5.75;1.87;;;7.90;99.90;;;;;;1897121;76;21034;-80
2021/01/30 09:02:32;;;;;;;10.50;1.37;;;8.00;99.90;;;;;;1896983;76;21065;-78
2021/01/30 09:04:58;;;;;;;10.50;1.45;;;8.00;99.90;;;;;;1897016;76;21113;-78
2021/01/30 09:07:24;;;;;;;2.55;1.00;;;8.10;99.90;;;;;;1896873;76;21491;-78
2021/01/30 09:09:51;;;;;;;7.37;1.10;;;8.20;99.90;;;;;;1897011;76;21399;-79
2021/01/30 09:12:17;;;;;;;9.00;1.50;;;8.20;99.90;;;;;;1896851;76;21035;-76
2021/01/30 09:14:43;;;;;;;6.20;1.25;;;8.10;99.90;;;;;;1896954;76;21135;-77
2021/01/30 09:17:09;;;;;;;2.25;0.98;;;8.10;99.90;;;;;;1897161;76;21023;-79
2021/01/30 09:19:35;;;;;;;5.25;1.17;;;8.20;99.90;;;;;;1897890;76;21062;-79
2021/01/30 09:22:01;;;;;;;10.45;1.25;;;8.20;99.90;;;;;;1899306;76;21030;-81
2021/01/30 09:24:29;;;;;;;8.75;1.35;;;8.20;99.90;;;;;;1898025;76;21040;-76
2021/01/30 09:26:55;;;;;;;4.05;1.55;;;8.40;99.90;;;;;;1897794;76;21062;-78
2021/01/30 09:29:21;;;;;;;2.35;1.60;;;8.60;99.90;;;;;;1897634;76;21069;-77
2021/01/30 09:31:47;;;;;;;5.62;0.93;;;8.50;99.90;;;;;;1897296;76;21135;-78
2021/01/30 09:34:15;;;;;;;10.53;1.70;;;8.50;99.90;;;;;;1897487;76;21058;-78
2021/01/30 09:36:41;;;;;;;6.10;1.42;;;8.40;99.90;;;;;;1897256;76;21098;-78
2021/01/30 09:39:07;;;;;;;5.12;1.35;;;8.50;99.90;;;;;;1897289;76;21070;-79
2021/01/30 09:41:33;;;;;;;8.88;1.42;;;8.50;99.90;;;;;;1897243;76;21034;-78
2021/01/30 09:43:59;;;;;;;3.87;1.00;;;8.50;99.90;;;;;;1897198;76;21074;-78
2021/01/30 09:46:25;;;;;;;8.50;1.42;;;8.60;99.90;;;;;;1897104;76;21035;-79
2021/01/30 09:48:51;;;;;;;8.80;1.40;;;8.50;99.90;;;;;;1897171;76;21127;-79
2021/01/30 09:51:18;;;;;;;5.37;1.05;;;8.70;99.90;;;;;;1897137;76;21074;-75
2021/01/30 09:53:44;;;;;;;6.97;1.17;;;8.80;99.90;;;;;;1897102;76;21026;-75
2021/01/30 09:56:10;;;;;;;4.78;1.42;;;8.90;99.90;;;;;;1897028;76;21104;-76
2021/01/30 09:58:36;;;;;;;8.55;1.15;;;8.80;99.90;;;;;;1897004;76;21040;-77
2021/01/30 10:01:05;;;;;;;3.87;1.32;;;8.60;99.90;;;;;;1897071;75;21058;-76
2021/01/30 10:03:31;;;;;;;14.30;1.37;;;8.80;99.90;;;;;;1896056;76;21454;-77
2021/01/30 10:05:57;;;;;;;5.42;1.52;;;8.80;99.90;;;;;;1896570;76;21482;-78
2021/01/30 10:08:26;;;;;;;4.72;1.57;;;8.80;99.90;;;;;;1896295;75;21435;-79
2021/01/30 10:11:00;;;;;;;8.40;1.72;;;8.90;99.90;;;;;;1896408;76;21501;-79
2021/01/30 10:13:27;;;;;;;5.75;1.10;;;8.90;99.90;;;;;;1897046;74;21066;-83
2021/01/30 10:15:54;;;;;;;6.28;1.32;;;9.10;99.90;;;;;;1897764;76;21051;-83
2021/01/30 10:18:22;;;;;;;5.97;1.02;;;9.10;99.90;;;;;;1897217;76;21062;-82
2021/01/30 10:20:48;;;;;;;4.55;1.80;;;9.00;99.90;;;;;;1897071;76;21066;-79
2021/01/30 10:23:14;;;;;;;2.47;0.80;;;9.10;99.90;;;;;;1897450;76;21091;-85
2021/01/30 10:25:40;;;;;;;6.65;0.88;;;9.20;99.90;;;;;;1897643;75;21049;-81
2021/01/30 10:28:06;;;;;;;10.93;1.77;;;9.40;99.90;;;;;;1901850;74;21046;-81
2021/01/30 10:30:33;;;;;;;5.12;1.05;;;9.50;99.90;;;;;;1909958;74;21112;-84
2021/01/30 10:32:59;;;;;;;3.95;0.98;;;9.50;99.90;;;;;;1913871;73;21201;-83
2021/01/30 10:35:25;;;;;;;11.25;1.22;;;9.30;99.90;;;;;;1911185;74;21131;-82
2021/01/30 10:37:51;;;;;;;5.95;1.52;;;8.90;99.90;;;;;;1902412;74;21074;-82
2021/01/30 10:40:17;;;;;;;5.55;1.50;;;8.80;99.90;;;;;;1902354;74;21116;-84
2021/01/30 10:42:43;;;;;;;5.53;1.07;;;8.70;99.90;;;;;;1872922;76;21116;-83
2021/01/30 10:45:09;;;;;;;9.93;1.77;;;8.60;99.90;;;;;;1897322;76;21596;-85
2021/01/30 10:47:35;;;;;;;4.17;0.95;;;8.50;99.90;;;;;;1896478;76;21544;-84
2021/01/30 10:50:02;;;;;;;2.83;0.90;;;8.50;99.90;;;;;;1896534;76;21439;-85
2021/01/30 10:52:28;;;;;;;5.28;1.27;;;8.60;99.90;;;;;;1896588;76;21373;-85
2021/01/30 10:54:54;;;;;;;6.47;2.02;;;8.60;99.90;;;;;;1896332;76;21035;-76
2021/01/30 10:57:20;;;;;;;5.37;1.17;;;8.60;99.90;;;;;;1896395;76;21128;-82
2021/01/30 10:59:46;;;;;;;7.12;1.10;;;8.50;99.90;;;;;;1896339;76;21104;-79
2021/01/30 11:02:14;;;;;;;3.00;0.62;;;8.50;99.90;;;;;;1898749;76;21076;-83
2021/01/30 11:04:40;;;;;;;4.75;1.00;;;8.50;99.90;;;;;;1896460;76;21144;-84
2021/01/30 11:07:06;;;;;;;2.08;1.00;;;8.60;99.90;;;;;;1896767;76;21206;-84
2021/01/30 11:09:33;;;;;;;7.28;1.42;;;8.70;99.90;;;;;;1896483;76;21038;-82
2021/01/30 11:11:59;;;;;;;4.80;1.15;;;8.70;99.90;;;;;;1896876;76;21082;-83
2021/01/30 11:14:25;;;;;;;5.00;1.12;;;8.80;99.90;;;;;;1896474;76;21062;-82
2021/01/30 11:16:51;;;;;;;2.33;0.80;;;8.70;99.90;;;;;;1896336;76;21070;-84
2021/01/30 11:19:18;;;;;;;3.20;0.90;;;8.80;99.90;;;;;;1896521;76;21066;-81
2021/01/30 11:21:44;;;;;;;8.80;2.05;;;9.00;99.90;;;;;;1896346;76;21058;-82
2021/01/30 11:24:10;;;;;;;6.87;1.10;;;8.90;99.90;;;;;;1896556;76;21069;-82
2021/01/30 11:26:36;;;;;;;6.50;1.65;;;9.00;99.90;;;;;;1896322;76;21035;-82
2021/01/30 11:29:03;;;;;;;5.42;1.20;;;8.90;99.90;;;;;;1896444;76;21109;-82
2021/01/30 11:31:29;;;;;;;5.30;1.22;;;9.10;99.90;;;;;;1896406;76;21086;-82
2021/01/30 11:33:55;;;;;;;3.27;1.02;;;9.10;99.90;;;;;;1896519;76;21127;-81
2021/01/30 11:36:22;;;;;;;8.23;0.90;;;9.00;99.90;;;;;;1896267;76;21070;-82
2021/01/30 11:38:48;;;;;;;4.53;1.22;;;9.10;99.90;;;;;;1896498;76;21074;-82
2021/01/30 11:41:14;;;;;;;3.85;1.55;;;9.10;99.90;;;;;;1896313;76;21071;-82
2021/01/30 11:43:40;;;;;;;6.72;1.57;;;9.00;99.90;;;;;;1896489;76;21498;-82
2021/01/30 11:46:06;;;;;;;5.37;1.15;;;9.10;99.90;;;;;;1896400;76;21038;-81
2021/01/30 11:48:32;;;;;;;9.15;1.40;;;9.20;99.90;;;;;;1896368;76;21035;-81
2021/01/30 11:50:58;;;;;;;4.97;1.55;;;9.30;99.90;;;;;;1896500;76;21097;-82
2021/01/30 11:53:25;;;;;;;6.17;1.17;;;9.30;99.90;;;;;;1896386;76;21092;-82
2021/01/30 11:55:51;;;;;;;6.75;1.17;;;9.40;99.90;;;;;;1896441;76;21109;-81
2021/01/30 11:58:17;;;;;;;3.52;0.95;;;9.30;99.90;;;;;;1896434;76;21097;-83
2021/01/30 12:00:43;;;;;;;9.83;1.10;;;8.90;99.90;;;;;;1896346;76;21062;-83
2021/01/30 12:03:12;;;;;;;2.90;1.10;;;8.90;99.90;;;;;;1896305;76;21117;-84
2021/01/30 12:05:38;;;;;;;10.38;0.98;;;9.10;99.90;;;;;;1896279;76;21144;-81
2021/01/30 12:08:07;;;;;;;3.02;0.82;;;9.20;99.90;;;;;;1896377;76;21107;-83
2021/01/30 12:10:32;;;;;;;1.12;0.90;;;9.10;99.90;;;;;;1896109;76;21074;-82
2021/01/30 12:12:58;;;;;;;3.08;1.20;;;8.90;99.90;;;;;;1896494;76;21062;-82
2021/01/30 12:15:24;;;;;;;3.25;1.40;;;8.90;99.90;;;;;;1896398;76;21043;-81
2021/01/30 12:17:51;;;;;;;2.52;0.95;;;8.80;99.90;;;;;;1896288;76;21053;-82
2021/01/30 12:20:18;;;;;;;10.85;1.17;;;8.90;99.90;;;;;;1896574;76;21051;-81
2021/01/30 12:22:47;;;;;;;2.92;1.12;;;9.00;99.90;;;;;;1898633;76;21124;-79
2021/01/30 12:25:12;;;;;;;6.00;1.25;;;9.00;99.90;;;;;;1897098;76;21151;-78
2021/01/30 12:27:39;;;;;;;11.83;1.32;;;9.00;99.90;;;;;;1896424;76;21156;-78
2021/01/30 12:30:05;;;;;;;7.50;1.00;;;8.90;99.90;;;;;;1871661;76;21030;-79
2021/01/30 12:32:31;;;;;;;2.40;1.10;;;9.00;99.90;;;;;;1896382;76;21058;-81
2021/01/30 12:34:59;;;;;;;6.40;1.40;;;9.00;99.90;;;;;;1896446;76;21144;-80
2021/01/30 12:37:25;;;;;;;7.83;1.37;;;8.80;99.90;;;;;;1896436;75;21157;-79
2021/01/30 12:39:54;;;;;;;5.45;0.95;;;8.80;99.90;;;;;;1902325;74;21062;-80
2021/01/30 12:42:19;;;;;;;3.75;1.17;;;8.60;99.90;;;;;;1895847;75;21134;-79
2021/01/30 12:44:47;;;;;;;2.47;1.17;;;8.70;99.90;;;;;;1896397;76;21063;-79
2021/01/30 12:47:13;;;;;;;4.90;1.00;;;8.90;99.90;;;;;;1896815;76;21062;-79
2021/01/30 12:49:39;;;;;;;9.23;1.20;;;8.90;99.90;;;;;;1896698;76;21102;-79
2021/01/30 12:52:05;;;;;;;6.67;1.20;;;8.80;99.90;;;;;;1897205;76;21035;-81